Time;durP1;ratioP1;P1;durP2;ratioP2;P2;SDS_P1;SDS_P2;PMS_P1;PMS_P2;Temp;Humidity;BMP_temperature;BMP_pressure;BME280_temperature;BME280_humidity;BME280_pressure;Samples;Min_cycle;Max_cycle;Signal;HPM_P1;HPM_P2
2021/04/16 00:02:12;;;;;;;2.80;1.60;;;6.20;99.90;;;;;;5083277;27;20536;-68
2021/04/16 00:04:39;;;;;;;3.07;2.37;;;6.20;99.90;;;;;;5072196;28;20453;-68
2021/04/16 00:07:05;;;;;;;4.10;2.77;;;6.30;99.90;;;;;;5079949;28;21008;-68
2021/04/16 00:09:32;;;;;;;3.03;1.80;;;6.20;99.90;;;;;;5088145;27;20546;-69
2021/04/16 00:11:59;;;;;;;6.60;2.40;;;6.30;99.90;;;;;;5098134;27;20463;-68
2021/04/16 00:14:26;;;;;;;7.03;2.50;;;6.40;99.90;;;;;;5069680;28;20927;-68
2021/04/16 00:16:53;;;;;;;4.70;3.07;;;6.40;99.90;;;;;;5082441;27;20572;-69
2021/04/16 00:19:20;;;;;;;2.00;1.70;;;6.30;99.90;;;;;;5073613;27;20556;-68
2021/04/16 00:21:47;;;;;;;3.63;2.40;;;6.30;99.90;;;;;;5095716;27;20511;-68
2021/04/16 00:24:13;;;;;;;3.27;2.57;;;6.30;99.90;;;;;;5063197;27;20466;-69
2021/04/16 00:26:41;;;;;;;2.03;1.50;;;6.40;99.90;;;;;;5072696;27;21141;-68
2021/04/16 00:29:09;;;;;;;2.53;1.97;;;6.20;99.90;;;;;;5094258;27;20536;-68
2021/04/16 00:31:37;;;;;;;7.43;3.07;;;6.20;99.90;;;;;;5093383;27;20473;-68
2021/04/16 00:34:04;;;;;;;2.87;1.80;;;6.20;99.90;;;;;;5084669;27;20463;-68
2021/04/16 00:36:32;;;;;;;1.97;1.77;;;6.10;99.90;;;;;;5098486;27;20872;-68
2021/04/16 00:38:58;;;;;;;4.80;1.87;;;6.10;99.90;;;;;;5094996;27;20565;-68
2021/04/16 00:41:28;;;;;;;3.20;2.03;;;6.10;99.90;;;;;;5095826;27;20456;-69
2021/04/16 00:43:55;;;;;;;2.30;2.10;;;6.20;99.90;;;;;;5088996;27;20523;-69
2021/04/16 00:46:28;;;;;;;4.73;2.80;;;6.20;99.90;;;;;;5089039;27;20855;-70
2021/04/16 00:48:59;;;;;;;2.47;1.93;;;6.30;99.90;;;;;;5086401;27;20437;-69
2021/04/16 00:51:31;;;;;;;3.53;3.17;;;6.20;99.90;;;;;;5092790;27;20591;-68
2021/04/16 00:54:00;;;;;;;7.07;2.57;;;6.40;99.90;;;;;;5087002;27;20466;-69
2021/04/16 00:56:27;;;;;;;2.77;1.80;;;6.40;99.90;;;;;;5083130;27;21068;-68
2021/04/16 00:58:54;;;;;;;5.20;2.90;;;6.30;99.90;;;;;;5091943;27;21386;-69
2021/04/16 01:01:23;;;;;;;4.70;2.37;;;6.40;99.90;;;;;;5090956;27;20537;-68
2021/04/16 01:03:50;;;;;;;4.30;2.00;;;6.40;99.90;;;;;;5095413;27;20461;-68
2021/04/16 01:06:22;;;;;;;1.60;1.27;;;6.40;99.90;;;;;;5085562;28;20539;-70
2021/04/16 01:08:50;;;;;;;4.23;2.37;;;6.40;99.90;;;;;;5092009;27;20517;-68
2021/04/16 01:11:16;;;;;;;5.00;3.03;;;6.30;99.90;;;;;;5092865;27;20555;-67
2021/04/16 01:13:45;;;;;;;1.93;1.70;;;6.10;99.90;;;;;;5091352;27;20987;-68
2021/04/16 01:16:16;;;;;;;4.90;2.07;;;6.10;99.90;;;;;;5076375;28;20638;-67
2021/04/16 01:18:46;;;;;;;2.87;2.60;;;6.00;99.90;;;;;;5088838;28;20468;-68
2021/04/16 01:21:16;;;;;;;3.00;2.30;;;6.10;99.90;;;;;;5090086;27;20538;-67
2021/04/16 01:23:51;;;;;;;3.87;2.30;;;6.20;99.90;;;;;;5090140;27;20526;-69
2021/04/16 01:26:20;;;;;;;4.13;2.37;;;6.20;99.90;;;;;;5090550;27;20458;-69
2021/04/16 01:28:48;;;;;;;3.30;1.63;;;6.40;99.90;;;;;;5091183;27;20426;-68
2021/04/16 01:31:18;;;;;;;2.50;2.00;;;6.50;99.90;;;;;;5087506;27;20482;-68
2021/04/16 01:33:45;;;;;;;5.00;2.20;;;6.40;99.90;;;;;;5084146;27;20544;-68
2021/04/16 01:36:15;;;;;;;3.00;1.93;;;6.50;99.90;;;;;;5090321;27;20463;-68
2021/04/16 01:38:44;;;;;;;3.20;2.00;;;6.50;99.90;;;;;;5083311;27;21530;-69
2021/04/16 01:41:13;;;;;;;1.60;1.50;;;6.60;99.90;;;;;;5102945;27;20447;-67
2021/04/16 01:43:43;;;;;;;10.70;1.73;;;6.60;99.90;;;;;;5089219;27;20431;-68
2021/04/16 01:46:12;;;;;;;3.40;2.20;;;6.70;99.90;;;;;;5090505;27;20539;-68
2021/04/16 01:48:41;;;;;;;2.93;2.30;;;6.70;99.90;;;;;;5087487;27;20431;-68
2021/04/16 01:51:11;;;;;;;3.43;3.03;;;6.70;99.90;;;;;;5097945;28;20537;-68
2021/04/16 01:53:38;;;;;;;4.13;2.10;;;6.60;99.90;;;;;;5091810;28;20457;-68
2021/04/16 01:56:05;;;;;;;3.97;2.13;;;6.60;99.90;;;;;;5093541;27;20554;-67
2021/04/16 01:58:31;;;;;;;2.77;2.10;;;6.50;99.90;;;;;;5091238;27;20514;-67
2021/04/16 02:00:59;;;;;;;19.10;2.30;;;6.40;99.90;;;;;;5083061;27;20887;-68
2021/04/16 02:03:26;;;;;;;3.40;2.57;;;6.50;99.90;;;;;;5088891;27;20460;-67
2021/04/16 02:05:54;;;;;;;2.10;1.77;;;6.40;99.90;;;;;;5090260;27;21077;-67
2021/04/16 02:08:21;;;;;;;2.30;2.10;;;6.40;99.90;;;;;;5077707;27;20518;-68
2021/04/16 02:10:48;;;;;;;4.03;2.27;;;6.40;99.90;;;;;;5071282;28;20519;-67
2021/04/16 02:13:15;;;;;;;3.73;1.97;;;6.30;99.90;;;;;;5072410;28;21144;-67
2021/04/16 02:15:41;;;;;;;3.20;2.17;;;6.20;99.90;;;;;;5070663;28;20543;-67
2021/04/16 02:18:09;;;;;;;4.83;2.47;;;6.30;99.90;;;;;;5087352;28;20803;-67
2021/04/16 02:20:35;;;;;;;3.40;1.90;;;6.40;99.90;;;;;;5091999;28;20451;-68
2021/04/16 02:23:03;;;;;;;8.83;2.50;;;6.40;99.90;;;;;;5066439;28;21003;-68
2021/04/16 02:25:30;;;;;;;4.47;2.20;;;6.40;99.90;;;;;;5083813;28;20540;-68
2021/04/16 02:27:57;;;;;;;2.10;1.70;;;6.40;99.90;;;;;;5083494;27;20428;-67
2021/04/16 02:30:26;;;;;;;4.03;3.00;;;6.30;99.90;;;;;;5092865;28;20912;-67
2021/04/16 02:32:52;;;;;;;4.10;3.00;;;6.30;99.90;;;;;;5090709;28;20431;-68
2021/04/16 02:35:21;;;;;;;4.30;2.80;;;6.00;99.90;;;;;;5073074;28;20527;-68
2021/04/16 02:37:47;;;;;;;2.83;1.93;;;6.00;99.90;;;;;;5084477;28;20455;-68
2021/04/16 02:40:17;;;;;;;3.50;2.50;;;6.00;99.90;;;;;;5080117;28;20553;-68
2021/04/16 02:42:44;;;;;;;4.07;2.43;;;6.00;99.90;;;;;;5090374;27;20456;-68
2021/04/16 02:45:14;;;;;;;3.37;2.17;;;5.90;99.90;;;;;;5077244;27;20520;-68
2021/04/16 02:47:40;;;;;;;2.83;2.40;;;5.60;99.90;;;;;;5091129;27;20435;-68
2021/04/16 02:50:09;;;;;;;3.63;2.43;;;5.50;99.90;;;;;;5078509;27;20427;-68
2021/04/16 02:52:36;;;;;;;2.87;2.67;;;5.60;99.90;;;;;;5096575;27;20597;-68
2021/04/16 02:55:04;;;;;;;4.10;2.27;;;5.80;99.90;;;;;;5096121;27;20943;-68
2021/04/16 02:57:30;;;;;;;2.83;1.93;;;5.90;99.90;;;;;;5095423;27;20535;-67
2021/04/16 02:59:57;;;;;;;8.20;2.13;;;5.80;99.90;;;;;;5079734;28;20519;-67
2021/04/16 03:02:24;;;;;;;4.37;2.67;;;5.70;99.90;;;;;;5097376;27;20473;-68
2021/04/16 03:04:50;;;;;;;2.70;2.20;;;5.80;99.90;;;;;;5102934;27;20548;-67
2021/04/16 03:07:17;;;;;;;5.00;2.80;;;5.90;99.90;;;;;;5094601;27;20845;-68
2021/04/16 03:09:45;;;;;;;9.27;4.50;;;6.00;99.90;;;;;;5075824;27;20431;-68
2021/04/16 03:12:12;;;;;;;2.33;1.77;;;5.80;99.90;;;;;;5099618;27;20443;-67
2021/04/16 03:14:38;;;;;;;3.90;2.90;;;5.80;99.90;;;;;;5105766;27;20480;-67
2021/04/16 03:17:05;;;;;;;2.90;2.37;;;6.00;99.90;;;;;;5097297;27;20535;-68
2021/04/16 03:19:32;;;;;;;3.50;2.57;;;6.00;99.90;;;;;;5073760;27;20438;-67
2021/04/16 03:21:59;;;;;;;3.50;1.93;;;6.00;99.90;;;;;;5079204;28;20431;-68
2021/04/16 03:24:26;;;;;;;4.97;3.00;;;6.00;99.90;;;;;;5097985;27;20420;-67
2021/04/16 03:26:53;;;;;;;4.10;2.73;;;6.00;99.90;;;;;;5077228;28;20518;-68
2021/04/16 03:29:23;;;;;;;7.00;3.00;;;6.10;99.90;;;;;;5084317;28;21720;-66
2021/04/16 03:31:50;;;;;;;2.33;2.13;;;6.30;99.90;;;;;;5093815;28;20504;-67
2021/04/16 03:34:17;;;;;;;4.40;2.67;;;6.30;99.90;;;;;;5084364;27;21003;-66
2021/04/16 03:36:44;;;;;;;2.90;2.30;;;6.30;99.90;;;;;;5098175;27;21009;-68
2021/04/16 03:39:13;;;;;;;3.83;3.00;;;6.40;99.90;;;;;;5060678;28;20490;-68
2021/04/16 03:41:40;;;;;;;2.00;1.80;;;6.40;99.90;;;;;;5092083;27;20928;-67
2021/04/16 03:44:08;;;;;;;2.33;2.07;;;6.40;99.90;;;;;;5077219;28;20484;-66
2021/04/16 03:46:35;;;;;;;4.50;2.50;;;6.30;99.90;;;;;;5091057;27;20419;-67
2021/04/16 03:49:02;;;;;;;2.73;2.07;;;6.10;99.90;;;;;;5075683;27;20588;-68
2021/04/16 03:51:28;;;;;;;3.07;2.63;;;6.00;99.90;;;;;;5077922;27;20483;-68
2021/04/16 03:53:56;;;;;;;4.60;3.37;;;5.90;99.90;;;;;;5072494;28;20428;-67
2021/04/16 03:56:23;;;;;;;5.77;3.40;;;5.90;99.90;;;;;;5099086;27;20476;-68
2021/04/16 03:58:49;;;;;;;6.13;2.37;;;5.80;99.90;;;;;;5089096;28;20950;-68
2021/04/16 04:01:17;;;;;;;3.33;2.80;;;5.80;99.90;;;;;;5098521;27;20504;-67
2021/04/16 04:03:44;;;;;;;6.30;3.70;;;5.70;99.90;;;;;;5095456;27;20448;-69
2021/04/16 04:06:11;;;;;;;4.90;3.00;;;5.70;99.90;;;;;;5090983;27;20479;-68
2021/04/16 04:08:38;;;;;;;5.00;3.57;;;5.70;99.90;;;;;;5083612;27;20459;-68
2021/04/16 04:11:05;;;;;;;1.80;1.53;;;5.70;99.90;;;;;;5073700;28;20452;-68
2021/04/16 04:13:31;;;;;;;3.63;3.00;;;5.50;99.90;;;;;;5096594;27;21052;-67
2021/04/16 04:15:58;;;;;;;4.50;2.60;;;5.60;99.90;;;;;;5082210;27;20484;-67
2021/04/16 04:18:25;;;;;;;3.57;3.00;;;5.60;99.90;;;;;;5075752;28;20461;-68
2021/04/16 04:20:52;;;;;;;7.20;3.63;;;5.60;99.90;;;;;;5096834;27;20454;-67
2021/04/16 04:23:19;;;;;;;4.40;2.57;;;5.60;99.90;;;;;;5097190;28;20451;-67
2021/04/16 04:25:46;;;;;;;2.30;2.10;;;5.60;99.90;;;;;;5097524;27;20990;-68
2021/04/16 04:28:12;;;;;;;5.80;3.83;;;5.50;99.90;;;;;;5068377;28;20874;-66
2021/04/16 04:30:39;;;;;;;2.70;2.50;;;5.70;99.90;;;;;;5080560;28;20471;-67
2021/04/16 04:33:07;;;;;;;3.67;2.80;;;5.70;99.90;;;;;;5096298;27;20768;-67
2021/04/16 04:35:35;;;;;;;4.03;3.20;;;5.80;99.90;;;;;;5095304;27;27487;-66
2021/04/16 04:38:03;;;;;;;3.33;3.03;;;5.80;99.90;;;;;;5095964;27;20543;-67
2021/04/16 04:40:29;;;;;;;7.90;3.23;;;5.80;99.90;;;;;;5093140;27;20509;-67
2021/04/16 04:42:57;;;;;;;3.27;2.93;;;5.80;99.90;;;;;;5075398;28;20435;-67
2021/04/16 04:45:24;;;;;;;15.37;3.43;;;5.60;99.90;;;;;;5088046;27;20938;-68
2021/04/16 04:47:51;;;;;;;5.00;2.73;;;5.60;99.90;;;;;;5099187;27;20536;-68
2021/04/16 04:50:18;;;;;;;7.33;4.50;;;5.60;99.90;;;;;;5111914;27;20452;-68
2021/04/16 04:52:46;;;;;;;4.40;3.20;;;5.60;99.90;;;;;;5106120;27;20557;-68
2021/04/16 04:55:16;;;;;;;5.60;3.30;;;5.60;99.90;;;;;;5110974;27;20458;-68
2021/04/16 04:57:43;;;;;;;3.53;3.20;;;5.60;99.90;;;;;;5109211;27;20450;-68
2021/04/16 05:00:13;;;;;;;7.63;5.80;;;5.60;99.90;;;;;;5104698;27;20524;-69
2021/04/16 05:02:40;;;;;;;5.30;3.80;;;5.50;99.90;;;;;;5112833;27;20427;-68
2021/04/16 05:05:08;;;;;;;5.90;2.80;;;5.40;99.90;;;;;;5107952;27;20487;-68
2021/04/16 05:07:34;;;;;;;5.37;4.10;;;5.40;99.90;;;;;;5110407;27;20423;-68
2021/04/16 05:10:03;;;;;;;8.13;5.20;;;5.50;99.90;;;;;;5108487;27;20527;-68
2021/04/16 05:12:30;;;;;;;6.10;4.30;;;5.50;99.90;;;;;;5110150;27;20430;-69
2021/04/16 05:14:56;;;;;;;14.13;4.10;;;5.80;99.90;;;;;;5108049;27;20953;-68
2021/04/16 05:17:23;;;;;;;4.10;2.73;;;5.90;99.90;;;;;;5105802;27;20514;-68
2021/04/16 05:19:49;;;;;;;3.90;2.60;;;6.00;99.90;;;;;;5108292;27;20460;-68
2021/04/16 05:22:16;;;;;;;4.50;3.40;;;6.00;99.90;;;;;;5107838;27;20551;-68
2021/04/16 05:24:43;;;;;;;8.40;6.03;;;6.10;99.90;;;;;;5092803;27;20578;-68
2021/04/16 05:27:13;;;;;;;6.27;3.50;;;6.10;99.90;;;;;;5108952;27;20434;-68
2021/04/16 05:29:40;;;;;;;5.73;3.20;;;6.20;99.90;;;;;;5103714;28;20423;-69
2021/04/16 05:32:07;;;;;;;2.80;2.60;;;6.00;99.90;;;;;;5085875;28;21180;-68
2021/04/16 05:34:34;;;;;;;3.23;2.40;;;6.40;99.90;;;;;;5106333;28;20438;-68
2021/04/16 05:37:01;;;;;;;5.20;3.20;;;6.30;99.90;;;;;;5100682;28;20538;-68
2021/04/16 05:39:28;;;;;;;3.63;2.50;;;6.30;99.90;;;;;;5083707;28;20443;-68
2021/04/16 05:41:55;;;;;;;3.30;3.10;;;6.40;99.90;;;;;;5086629;28;20546;-68
2021/04/16 05:44:23;;;;;;;3.50;2.70;;;6.40;99.90;;;;;;5105985;28;20523;-68
2021/04/16 05:46:50;;;;;;;7.40;3.60;;;6.40;99.90;;;;;;5100432;27;20457;-68
2021/04/16 05:49:17;;;;;;;11.37;2.27;;;6.70;99.90;;;;;;5088969;28;20961;-67
2021/04/16 05:51:43;;;;;;;4.27;2.83;;;6.80;99.90;;;;;;5084766;28;20487;-67
2021/04/16 05:54:11;;;;;;;4.43;2.93;;;7.00;99.90;;;;;;5083259;28;20485;-67
2021/04/16 05:56:38;;;;;;;4.53;3.60;;;7.30;99.90;;;;;;5104031;28;20451;-67
2021/04/16 05:59:05;;;;;;;3.77;3.17;;;7.70;99.90;;;;;;5107264;28;20539;-69
2021/04/16 06:01:33;;;;;;;3.20;2.30;;;8.20;99.90;;;;;;5101336;28;20508;-67
2021/04/16 06:04:00;;;;;;;5.53;3.87;;;8.70;99.90;;;;;;5105461;28;20431;-67
2021/04/16 06:06:27;;;;;;;5.10;3.40;;;9.00;99.90;;;;;;5100728;27;21014;-67
2021/04/16 06:08:55;;;;;;;10.77;3.00;;;8.90;99.90;;;;;;5103978;28;20464;-67
2021/04/16 06:11:21;;;;;;;4.60;3.30;;;9.40;99.90;;;;;;5107217;28;20542;-68
2021/04/16 06:13:48;;;;;;;6.00;3.13;;;9.80;99.90;;;;;;5102344;28;20471;-66
2021/04/16 06:16:15;;;;;;;6.30;2.80;;;10.10;99.90;;;;;;5083172;28;21214;-67
2021/04/16 06:18:42;;;;;;;4.50;3.00;;;9.90;99.90;;;;;;5095477;28;20435;-67
2021/04/16 06:21:10;;;;;;;3.70;2.80;;;10.20;99.90;;;;;;5088530;28;20485;-67
2021/04/16 06:23:37;;;;;;;6.47;2.90;;;10.50;99.90;;;;;;5074054;28;20588;-67
2021/04/16 06:26:04;;;;;;;3.67;2.83;;;10.70;99.90;;;;;;5084556;28;20933;-67
2021/04/16 06:28:31;;;;;;;3.73;3.43;;;10.80;99.90;;;;;;5101832;28;20490;-67
2021/04/16 06:30:57;;;;;;;3.80;3.50;;;10.60;99.90;;;;;;5103085;28;20459;-68
2021/04/16 06:33:27;;;;;;;3.83;3.33;;;10.60;99.90;;;;;;5097149;28;20526;-66
2021/04/16 06:35:57;;;;;;;3.27;2.23;;;11.20;99.90;;;;;;5104646;28;20460;-67
2021/04/16 06:38:29;;;;;;;4.27;3.60;;;11.60;99.90;;;;;;5102165;28;20529;-68
2021/04/16 06:40:56;;;;;;;3.97;2.70;;;11.40;99.90;;;;;;5100489;28;20480;-69
2021/04/16 06:43:26;;;;;;;3.53;2.40;;;11.40;99.90;;;;;;5097579;28;20453;-68
2021/04/16 06:45:54;;;;;;;6.33;4.37;;;12.20;99.90;;;;;;5102246;28;20537;-67
2021/04/16 06:48:21;;;;;;;3.33;2.43;;;11.90;99.90;;;;;;5099429;28;20543;-68
2021/04/16 06:50:48;;;;;;;4.30;3.13;;;11.60;99.90;;;;;;5096082;28;20481;-67
2021/04/16 06:53:22;;;;;;;3.50;3.20;;;11.40;99.90;;;;;;5086891;28;21074;-67
2021/04/16 06:55:57;;;;;;;3.57;2.70;;;11.70;99.90;;;;;;5100268;28;20982;-67
2021/04/16 06:58:29;;;;;;;7.23;3.10;;;12.10;99.90;;;;;;5100770;28;20827;-66
2021/04/16 07:01:11;;;;;;;6.00;3.57;;;12.70;99.90;;;;;;5098258;28;20559;-66
2021/04/16 07:03:43;;;;;;;3.90;3.00;;;12.10;99.90;;;;;;5104627;28;20546;-66
2021/04/16 07:06:19;;;;;;;4.90;3.50;;;12.70;99.90;;;;;;5102216;28;20869;-65
2021/04/16 07:08:53;;;;;;;3.47;2.63;;;13.20;99.90;;;;;;5096079;28;20471;-66
2021/04/16 07:11:23;;;;;;;7.93;2.60;;;13.40;99.90;;;;;;5098557;28;21018;-67
2021/04/16 07:13:50;;;;;;;6.40;4.57;;;12.90;99.90;;;;;;5104810;28;20627;-67
2021/04/16 07:16:19;;;;;;;4.50;2.73;;;13.00;99.90;;;;;;5099719;28;20503;-66
2021/04/16 07:18:49;;;;;;;7.07;4.37;;;13.00;99.90;;;;;;5100572;28;20480;-66
2021/04/16 07:21:18;;;;;;;7.20;5.67;;;14.10;99.60;;;;;;5098838;28;20477;-66
2021/04/16 07:23:49;;;;;;;4.53;3.50;;;14.50;98.60;;;;;;5098216;28;20460;-66
2021/04/16 07:26:27;;;;;;;5.13;2.90;;;14.80;96.40;;;;;;5101472;28;20606;-67
2021/04/16 07:28:57;;;;;;;3.50;2.93;;;14.70;94.80;;;;;;5109168;27;20455;-67
2021/04/16 07:31:37;;;;;;;3.50;2.67;;;14.60;95.50;;;;;;5107442;27;20461;-67
2021/04/16 07:34:13;;;;;;;4.00;2.30;;;14.60;92.10;;;;;;5105725;27;20584;-66
2021/04/16 07:36:42;;;;;;;7.67;2.23;;;15.00;89.50;;;;;;5104249;27;21633;-67
2021/04/16 07:39:29;;;;;;;4.43;3.50;;;14.60;90.30;;;;;;5102214;27;20495;-66
2021/04/16 07:42:21;;;;;;;8.73;4.10;;;14.70;91.00;;;;;;5102805;28;20484;-66
2021/04/16 07:45:15;;;;;;;3.67;3.00;;;14.70;90.40;;;;;;5097530;27;20528;-65
2021/04/16 07:47:41;;;;;;;3.80;2.30;;;14.70;89.80;;;;;;5105443;28;20531;-66
2021/04/16 07:50:11;;;;;;;11.23;10.30;;;15.00;87.60;;;;;;5105353;27;20460;-66
2021/04/16 07:52:40;;;;;;;5.57;3.87;;;15.50;85.20;;;;;;5099138;27;20518;-66
2021/04/16 07:55:18;;;;;;;3.87;2.97;;;15.20;82.80;;;;;;5105308;27;20488;-66
2021/04/16 07:57:53;;;;;;;2.83;2.63;;;15.50;82.00;;;;;;5104147;28;21259;-66
2021/04/16 08:00:27;;;;;;;4.30;3.60;;;16.10;82.70;;;;;;5099827;28;21143;-66
2021/04/16 08:03:05;;;;;;;3.70;2.60;;;15.70;81.00;;;;;;5106244;27;20535;-66
2021/04/16 08:05:34;;;;;;;3.10;2.50;;;15.50;79.70;;;;;;5101248;27;20492;-67
2021/04/16 08:08:13;;;;;;;4.10;3.00;;;15.90;80.00;;;;;;5104994;28;20522;-66
2021/04/16 08:10:41;;;;;;;8.20;3.30;;;15.70;77.80;;;;;;5104122;28;20495;-66
2021/04/16 08:13:20;;;;;;;5.63;2.80;;;15.90;79.90;;;;;;5099134;28;20912;-66
2021/04/16 08:15:47;;;;;;;6.30;3.43;;;15.80;77.00;;;;;;5100808;28;20548;-65
2021/04/16 08:18:22;;;;;;;5.40;3.07;;;15.10;76.20;;;;;;5098169;28;20484;-65
2021/04/16 08:20:58;;;;;;;4.20;1.93;;;14.30;77.10;;;;;;5103797;27;20518;-66
2021/04/16 08:23:28;;;;;;;3.73;2.80;;;13.70;76.30;;;;;;5102992;28;20517;-66
2021/04/16 08:25:57;;;;;;;3.60;2.90;;;13.10;77.80;;;;;;5102108;28;20800;-66
2021/04/16 08:28:30;;;;;;;3.83;2.23;;;13.10;81.70;;;;;;5098849;27;21004;-66
2021/04/16 08:31:02;;;;;;;3.90;2.23;;;13.20;82.80;;;;;;5107491;28;20892;-66
2021/04/16 08:33:35;;;;;;;5.13;2.57;;;13.10;82.70;;;;;;5105961;27;20487;-65
2021/04/16 08:36:08;;;;;;;3.37;2.60;;;13.00;81.80;;;;;;5100683;27;20464;-66
2021/04/16 08:38:39;;;;;;;1.87;1.47;;;12.50;79.20;;;;;;5103680;28;20475;-66
2021/04/16 08:41:10;;;;;;;4.30;2.63;;;12.00;80.20;;;;;;5095129;28;20520;-65
2021/04/16 08:43:41;;;;;;;3.90;2.40;;;12.00;81.50;;;;;;5105981;28;20453;-66
2021/04/16 08:46:24;;;;;;;3.40;1.83;;;12.70;78.60;;;;;;5096959;28;20462;-66
2021/04/16 08:48:54;;;;;;;1.60;1.27;;;13.80;76.50;;;;;;5107943;27;20513;-66
2021/04/16 08:51:25;;;;;;;2.10;1.50;;;14.80;73.00;;;;;;5101899;28;20481;-66
2021/04/16 08:54:00;;;;;;;2.80;1.73;;;15.30;69.10;;;;;;5102831;28;20489;-66
2021/04/16 08:56:33;;;;;;;2.50;2.30;;;15.70;66.80;;;;;;5099859;28;20490;-66
2021/04/16 08:59:10;;;;;;;1.50;1.20;;;15.70;63.20;;;;;;5100651;28;20480;-66
2021/04/16 09:01:54;;;;;;;1.87;1.70;;;15.30;63.10;;;;;;5104301;27;20900;-66
2021/04/16 09:04:49;;;;;;;1.30;1.07;;;15.90;62.00;;;;;;5103455;28;20548;-66
2021/04/16 09:07:33;;;;;;;1.50;1.17;;;16.90;58.80;;;;;;5098344;28;20966;-66
2021/04/16 09:10:02;;;;;;;2.03;1.60;;;17.60;57.60;;;;;;5097045;27;20864;-66
2021/04/16 09:12:48;;;;;;;2.47;1.63;;;17.30;55.60;;;;;;5102630;28;21071;-66
2021/04/16 09:15:44;;;;;;;2.23;1.47;;;16.20;55.80;;;;;;5100384;28;20877;-66
2021/04/16 09:18:34;;;;;;;3.03;2.07;;;15.30;57.20;;;;;;5100076;28;20476;-65
2021/04/16 09:21:31;;;;;;;3.93;1.97;;;14.40;57.70;;;;;;5106983;28;20488;-66
2021/04/16 09:24:11;;;;;;;2.57;1.50;;;13.90;58.50;;;;;;5103272;28;21741;-66
2021/04/16 09:27:04;;;;;;;3.23;1.97;;;14.20;59.70;;;;;;5101214;27;20557;-65
2021/04/16 09:29:48;;;;;;;2.33;1.53;;;13.90;58.20;;;;;;5105496;28;20452;-67
2021/04/16 09:32:42;;;;;;;1.50;1.30;;;14.50;60.00;;;;;;5094525;28;20481;-67
2021/04/16 09:35:11;;;;;;;3.20;1.77;;;15.20;58.50;;;;;;5098278;28;20449;-66
2021/04/16 09:37:40;;;;;;;1.97;1.57;;;15.40;56.70;;;;;;5103410;28;20980;-67
2021/04/16 09:40:30;;;;;;;2.90;1.73;;;15.90;58.30;;;;;;5101064;27;20499;-66
2021/04/16 09:42:58;;;;;;;1.90;1.50;;;16.20;55.10;;;;;;5094056;28;20499;-66
2021/04/16 09:45:42;;;;;;;2.40;1.93;;;15.90;56.40;;;;;;5103189;28;20497;-66
2021/04/16 09:48:10;;;;;;;1.63;1.30;;;15.80;56.40;;;;;;5094527;28;20482;-66
2021/04/16 09:50:39;;;;;;;3.97;1.77;;;16.40;56.50;;;;;;5099471;28;20964;-66
2021/04/16 09:53:19;;;;;;;3.20;1.77;;;16.80;55.20;;;;;;5098577;28;20458;-65
2021/04/16 09:56:11;;;;;;;2.17;1.83;;;18.10;54.80;;;;;;5102591;28;20457;-66
2021/04/16 09:59:10;;;;;;;1.43;1.17;;;19.30;53.90;;;;;;5095129;28;20472;-66
2021/04/16 10:02:28;;;;;;;1.83;1.73;;;19.50;50.80;;;;;;5104718;28;20487;-65
2021/04/16 10:05:04;;;;;;;2.13;1.93;;;19.50;49.30;;;;;;5103257;28;20496;-65
2021/04/16 10:07:38;;;;;;;2.30;1.40;;;19.50;50.80;;;;;;5091521;28;20503;-66
2021/04/16 10:10:14;;;;;;;2.37;1.50;;;20.30;48.20;;;;;;5105372;28;20448;-66
2021/04/16 10:12:40;;;;;;;1.87;1.60;;;20.10;48.10;;;;;;5095213;28;20553;-66
2021/04/16 10:15:23;;;;;;;2.60;1.60;;;19.50;49.40;;;;;;5105996;27;20460;-66
2021/04/16 10:18:00;;;;;;;3.60;2.00;;;19.10;49.10;;;;;;5102531;28;21432;-66
2021/04/16 10:20:30;;;;;;;2.60;1.50;;;18.00;49.70;;;;;;5103535;28;20487;-65
2021/04/16 10:23:03;;;;;;;3.00;2.03;;;18.10;48.60;;;;;;5098168;28;20551;-66
2021/04/16 12:39:47;;;;;;;2.80;1.83;;;21.70;41.40;;;;;;5094898;27;20460;-67
2021/04/16 12:42:14;;;;;;;1.67;1.47;;;19.90;43.00;;;;;;5093539;28;20476;-66
2021/04/16 12:44:43;;;;;;;9.30;2.50;;;19.70;43.10;;;;;;5090637;27;20469;-65
2021/04/16 12:47:13;;;;;;;2.87;2.00;;;19.50;44.20;;;;;;5094508;27;20460;-66
2021/04/16 12:49:40;;;;;;;2.13;1.93;;;19.60;45.20;;;;;;5100372;27;20533;-66
2021/04/16 12:52:08;;;;;;;5.00;2.00;;;19.40;45.80;;;;;;5094942;27;20485;-65
2021/04/16 12:54:37;;;;;;;2.03;1.40;;;19.00;44.30;;;;;;5104014;27;20461;-66
2021/04/16 12:57:06;;;;;;;3.13;1.80;;;18.90;44.40;;;;;;5094375;27;20529;-66
2021/04/16 12:59:37;;;;;;;2.57;1.90;;;18.10;45.00;;;;;;5099224;28;21048;-65
2021/04/16 13:02:05;;;;;;;2.17;1.57;;;18.00;44.20;;;;;;5092428;27;20486;-68
2021/04/16 13:04:37;;;;;;;2.43;1.83;;;17.90;45.80;;;;;;5095801;27;20465;-65
2021/04/16 13:07:04;;;;;;;2.13;1.53;;;18.20;45.70;;;;;;5090424;27;20520;-65
2021/04/16 13:09:32;;;;;;;4.30;1.90;;;17.90;44.90;;;;;;5092112;27;20465;-64
2021/04/16 13:11:58;;;;;;;3.00;1.83;;;18.10;45.70;;;;;;5076867;28;20577;-66
2021/04/16 13:14:25;;;;;;;1.83;1.10;;;18.40;45.20;;;;;;5092828;27;20460;-66
2021/04/16 13:16:55;;;;;;;12.63;1.93;;;18.00;44.70;;;;;;5094759;27;20498;-65
2021/04/16 13:19:25;;;;;;;2.47;1.83;;;17.50;45.20;;;;;;5091637;28;20959;-65
2021/04/16 13:21:57;;;;;;;4.50;3.00;;;17.50;45.70;;;;;;5091909;27;20560;-65
2021/04/16 13:24:23;;;;;;;4.30;1.90;;;18.10;46.60;;;;;;5089024;28;20457;-65
2021/04/16 13:26:51;;;;;;;2.70;1.67;;;18.60;45.40;;;;;;5093440;27;20485;-66
2021/04/16 13:29:18;;;;;;;4.50;1.60;;;19.20;44.70;;;;;;5088911;27;20456;-65
2021/04/16 13:31:45;;;;;;;2.70;1.93;;;19.40;44.00;;;;;;5075277;28;20516;-66
2021/04/16 13:34:11;;;;;;;2.77;1.33;;;19.90;44.70;;;;;;5070560;28;20797;-66
2021/04/16 13:36:38;;;;;;;2.70;2.30;;;20.60;43.70;;;;;;5060644;28;20472;-65
2021/04/16 13:39:07;;;;;;;2.47;1.63;;;20.90;44.00;;;;;;5090546;27;20477;-65
2021/04/16 13:41:34;;;;;;;1.80;1.40;;;20.60;44.70;;;;;;5086905;28;20556;-65
2021/04/16 13:44:03;;;;;;;3.80;2.20;;;19.90;43.40;;;;;;5090652;28;21708;-64
2021/04/16 13:46:32;;;;;;;2.67;2.27;;;18.60;44.20;;;;;;5095347;27;20531;-66
2021/04/16 13:49:00;;;;;;;4.00;2.83;;;17.90;45.30;;;;;;5096358;28;20864;-65
2021/04/16 13:51:27;;;;;;;7.77;2.20;;;18.20;46.20;;;;;;5088953;27;20513;-65
2021/04/16 13:53:54;;;;;;;4.40;2.30;;;18.50;45.20;;;;;;5062960;28;20484;-65
2021/04/16 13:56:21;;;;;;;3.70;2.10;;;18.20;45.50;;;;;;5083179;27;20546;-65
2021/04/16 13:58:48;;;;;;;2.00;1.80;;;17.70;45.50;;;;;;5082681;27;20540;-65
2021/04/16 14:01:16;;;;;;;3.20;2.40;;;17.50;46.80;;;;;;5089320;27;20477;-65
2021/04/16 14:03:44;;;;;;;3.40;1.90;;;17.30;46.70;;;;;;5082448;27;20544;-66
2021/04/16 14:06:16;;;;;;;3.60;1.90;;;17.30;47.10;;;;;;5088454;28;20453;-66
2021/04/16 14:08:50;;;;;;;3.10;1.80;;;17.80;47.50;;;;;;5086249;27;20516;-66
2021/04/16 14:11:17;;;;;;;2.97;2.07;;;18.00;47.20;;;;;;5081942;28;20485;-66
2021/04/16 14:13:44;;;;;;;2.43;2.23;;;18.60;46.90;;;;;;5084297;27;21040;-66
2021/04/16 14:16:20;;;;;;;5.00;1.97;;;18.20;45.00;;;;;;5070782;27;20525;-66
2021/04/16 14:18:49;;;;;;;2.53;2.00;;;17.60;45.30;;;;;;5086981;28;20480;-67
2021/04/16 14:21:18;;;;;;;6.33;2.03;;;17.10;45.50;;;;;;5085558;27;21268;-66
2021/04/16 14:23:44;;;;;;;2.27;1.80;;;17.60;46.40;;;;;;5084279;27;20449;-66
2021/04/16 14:26:12;;;;;;;2.00;1.70;;;18.60;45.70;;;;;;5099671;27;20548;-66
2021/04/16 14:28:39;;;;;;;1.63;1.33;;;18.70;44.10;;;;;;5085930;28;20876;-67
2021/04/16 14:31:06;;;;;;;3.27;1.77;;;17.60;44.90;;;;;;5087833;27;20488;-66
2021/04/16 14:33:35;;;;;;;1.90;1.70;;;16.90;46.20;;;;;;5090755;28;20457;-65
2021/04/16 14:36:03;;;;;;;2.10;1.83;;;16.40;47.20;;;;;;5084453;28;21030;-66
2021/04/16 14:38:31;;;;;;;5.80;2.47;;;16.30;47.00;;;;;;5087459;28;20496;-66
2021/04/16 14:40:59;;;;;;;8.73;1.73;;;16.40;47.10;;;;;;5082988;28;20480;-66
2021/04/16 14:43:27;;;;;;;3.13;1.83;;;16.60;47.60;;;;;;5067371;28;20457;-66
2021/04/16 14:45:55;;;;;;;2.80;2.00;;;16.50;47.60;;;;;;5089523;28;20606;-65
2021/04/16 14:48:24;;;;;;;2.27;1.90;;;16.70;47.50;;;;;;5084395;28;20449;-66
2021/04/16 14:50:54;;;;;;;5.20;2.40;;;16.50;47.80;;;;;;5088134;28;20568;-66
2021/04/16 14:53:23;;;;;;;2.40;1.70;;;16.50;47.90;;;;;;5084172;28;20445;-65
2021/04/16 14:55:50;;;;;;;2.37;1.67;;;16.80;48.50;;;;;;5078542;28;20899;-66
2021/04/16 14:58:27;;;;;;;2.30;1.87;;;16.50;48.40;;;;;;5085721;28;20618;-65
2021/04/16 15:00:54;;;;;;;2.77;1.70;;;16.70;48.00;;;;;;5079758;28;20483;-66
2021/04/16 15:03:21;;;;;;;4.17;2.37;;;16.30;48.50;;;;;;5072844;28;20472;-66
2021/04/16 15:05:47;;;;;;;2.13;1.90;;;16.20;48.00;;;;;;5070090;28;20487;-65
2021/04/16 15:08:17;;;;;;;3.00;1.87;;;16.10;48.00;;;;;;5094125;28;20487;-65
2021/04/16 15:10:48;;;;;;;3.10;1.50;;;15.90;48.30;;;;;;5092932;28;20481;-65
2021/04/16 15:13:20;;;;;;;1.93;1.73;;;15.70;49.00;;;;;;5088000;28;20457;-66
2021/04/16 15:15:47;;;;;;;5.23;4.73;;;15.60;49.00;;;;;;5086655;28;20459;-65
2021/04/16 15:18:16;;;;;;;2.53;2.27;;;15.70;48.80;;;;;;5064507;28;20508;-66
2021/04/16 15:20:44;;;;;;;3.33;2.70;;;15.60;49.50;;;;;;5088534;28;20474;-67